sensor_id;sensor_type;location;lat;lon;timestamp;P1;durP1;ratioP1;P2;durP2;ratioP2
69392;SDS011;56582;44.624;20.378;2024-03-17T00:01:03;40.65;;;26.60;;
69392;SDS011;56582;44.624;20.378;2024-03-17T00:03:30;47.73;;;29.37;;
69392;SDS011;56582;44.624;20.378;2024-03-17T00:06:00;47.97;;;30.27;;
69392;SDS011;56582;44.624;20.378;2024-03-17T00:08:28;46.60;;;27.88;;
69392;SDS011;56582;44.624;20.378;2024-03-17T00:10:54;46.33;;;29.52;;
69392;SDS011;56582;44.624;20.378;2024-03-17T00:13:22;50.85;;;32.05;;
69392;SDS011;56582;44.624;20.378;2024-03-17T00:15:49;47.67;;;30.57;;
69392;SDS011;56582;44.624;20.378;2024-03-17T00:18:16;57.40;;;34.92;;
69392;SDS011;56582;44.624;20.378;2024-03-17T00:20:43;53.80;;;33.03;;
69392;SDS011;56582;44.624;20.378;2024-03-17T00:23:09;48.95;;;32.03;;
69392;SDS011;56582;44.624;20.378;2024-03-17T00:25:37;50.05;;;31.38;;
69392;SDS011;56582;44.624;20.378;2024-03-17T00:28:04;50.10;;;30.20;;
69392;SDS011;56582;44.624;20.378;2024-03-17T00:30:31;45.58;;;29.27;;
69392;SDS011;56582;44.624;20.378;2024-03-17T00:32:57;43.42;;;27.83;;
69392;SDS011;56582;44.624;20.378;2024-03-17T00:35:24;45.15;;;27.88;;
69392;SDS011;56582;44.624;20.378;2024-03-17T00:37:50;43.97;;;28.13;;
69392;SDS011;56582;44.624;20.378;2024-03-17T00:40:17;42.45;;;26.77;;
69392;SDS011;56582;44.624;20.378;2024-03-17T00:42:45;45.78;;;27.45;;
69392;SDS011;56582;44.624;20.378;2024-03-17T00:45:11;44.42;;;27.48;;
69392;SDS011;56582;44.624;20.378;2024-03-17T00:47:38;43.40;;;28.00;;
69392;SDS011;56582;44.624;20.378;2024-03-17T00:50:04;43.57;;;28.67;;
69392;SDS011;56582;44.624;20.378;2024-03-17T00:52:36;45.72;;;28.70;;
69392;SDS011;56582;44.624;20.378;2024-03-17T00:55:03;45.00;;;29.20;;
69392;SDS011;56582;44.624;20.378;2024-03-17T00:57:29;46.47;;;29.25;;
69392;SDS011;56582;44.624;20.378;2024-03-17T00:59:55;45.03;;;28.17;;
69392;SDS011;56582;44.624;20.378;2024-03-17T01:02:22;45.00;;;29.00;;
69392;SDS011;56582;44.624;20.378;2024-03-17T01:04:48;45.97;;;29.30;;
69392;SDS011;56582;44.624;20.378;2024-03-17T01:07:13;47.53;;;29.00;;
69392;SDS011;56582;44.624;20.378;2024-03-17T01:09:39;46.17;;;28.55;;
69392;SDS011;56582;44.624;20.378;2024-03-17T01:12:05;43.00;;;28.50;;
69392;SDS011;56582;44.624;20.378;2024-03-17T01:14:31;42.53;;;28.42;;
69392;SDS011;56582;44.624;20.378;2024-03-17T01:16:58;42.47;;;27.40;;
69392;SDS011;56582;44.624;20.378;2024-03-17T01:19:25;45.03;;;29.25;;
69392;SDS011;56582;44.624;20.378;2024-03-17T01:21:51;42.75;;;27.17;;
69392;SDS011;56582;44.624;20.378;2024-03-17T01:24:18;45.33;;;28.55;;
69392;SDS011;56582;44.624;20.378;2024-03-17T01:26:44;43.03;;;28.95;;
69392;SDS011;56582;44.624;20.378;2024-03-17T01:29:10;52.93;;;32.10;;
69392;SDS011;56582;44.624;20.378;2024-03-17T01:31:36;58.03;;;35.65;;
69392;SDS011;56582;44.624;20.378;2024-03-17T01:34:02;59.22;;;36.40;;
69392;SDS011;56582;44.624;20.378;2024-03-17T01:36:28;52.63;;;32.58;;
69392;SDS011;56582;44.624;20.378;2024-03-17T01:38:54;50.53;;;33.40;;
69392;SDS011;56582;44.624;20.378;2024-03-17T01:41:21;49.50;;;31.73;;
69392;SDS011;56582;44.624;20.378;2024-03-17T01:43:46;50.58;;;32.22;;
69392;SDS011;56582;44.624;20.378;2024-03-17T01:46:14;50.05;;;31.67;;
69392;SDS011;56582;44.624;20.378;2024-03-17T01:48:43;53.83;;;32.17;;
69392;SDS011;56582;44.624;20.378;2024-03-17T01:51:11;51.47;;;31.95;;
69392;SDS011;56582;44.624;20.378;2024-03-17T01:53:39;55.80;;;34.67;;
69392;SDS011;56582;44.624;20.378;2024-03-17T01:56:07;50.63;;;31.83;;
69392;SDS011;56582;44.624;20.378;2024-03-17T01:58:36;59.40;;;37.22;;
69392;SDS011;56582;44.624;20.378;2024-03-17T02:01:02;54.80;;;34.57;;
69392;SDS011;56582;44.624;20.378;2024-03-17T02:03:32;55.42;;;34.33;;
69392;SDS011;56582;44.624;20.378;2024-03-17T02:05:58;54.83;;;35.10;;
69392;SDS011;56582;44.624;20.378;2024-03-17T02:08:25;53.93;;;34.47;;
69392;SDS011;56582;44.624;20.378;2024-03-17T02:10:52;51.55;;;33.13;;
69392;SDS011;56582;44.624;20.378;2024-03-17T02:13:22;52.53;;;32.50;;
69392;SDS011;56582;44.624;20.378;2024-03-17T02:15:48;54.60;;;32.70;;
69392;SDS011;56582;44.624;20.378;2024-03-17T02:18:15;52.80;;;33.40;;
69392;SDS011;56582;44.624;20.378;2024-03-17T02:20:41;53.47;;;32.90;;
69392;SDS011;56582;44.624;20.378;2024-03-17T02:23:25;49.63;;;31.27;;
69392;SDS011;56582;44.624;20.378;2024-03-17T02:25:52;47.67;;;30.40;;
69392;SDS011;56582;44.624;20.378;2024-03-17T02:28:19;48.42;;;30.38;;
69392;SDS011;56582;44.624;20.378;2024-03-17T02:30:45;46.20;;;29.37;;
69392;SDS011;56582;44.624;20.378;2024-03-17T02:33:10;49.05;;;30.00;;
69392;SDS011;56582;44.624;20.378;2024-03-17T02:35:36;48.53;;;31.05;;
69392;SDS011;56582;44.624;20.378;2024-03-17T02:38:02;49.67;;;31.20;;
69392;SDS011;56582;44.624;20.378;2024-03-17T02:40:28;50.03;;;31.25;;
69392;SDS011;56582;44.624;20.378;2024-03-17T02:42:54;50.28;;;32.80;;
69392;SDS011;56582;44.624;20.378;2024-03-17T02:45:21;52.17;;;34.85;;
69392;SDS011;56582;44.624;20.378;2024-03-17T02:47:47;54.50;;;34.77;;
69392;SDS011;56582;44.624;20.378;2024-03-17T02:50:14;54.00;;;32.78;;
69392;SDS011;56582;44.624;20.378;2024-03-17T02:52:42;49.45;;;31.60;;
69392;SDS011;56582;44.624;20.378;2024-03-17T02:55:07;45.97;;;28.38;;
69392;SDS011;56582;44.624;20.378;2024-03-17T02:57:33;48.22;;;30.95;;
69392;SDS011;56582;44.624;20.378;2024-03-17T03:00:00;50.40;;;31.40;;
69392;SDS011;56582;44.624;20.378;2024-03-17T03:02:29;47.17;;;30.77;;
69392;SDS011;56582;44.624;20.378;2024-03-17T03:04:55;47.08;;;30.85;;
69392;SDS011;56582;44.624;20.378;2024-03-17T03:07:21;48.87;;;30.67;;
69392;SDS011;56582;44.624;20.378;2024-03-17T03:09:47;45.40;;;29.47;;
69392;SDS011;56582;44.624;20.378;2024-03-17T03:12:14;47.15;;;31.35;;
69392;SDS011;56582;44.624;20.378;2024-03-17T03:14:40;46.83;;;29.63;;
69392;SDS011;56582;44.624;20.378;2024-03-17T03:17:06;49.05;;;30.20;;
69392;SDS011;56582;44.624;20.378;2024-03-17T03:19:31;53.43;;;32.23;;
69392;SDS011;56582;44.624;20.378;2024-03-17T03:21:57;53.50;;;32.28;;
69392;SDS011;56582;44.624;20.378;2024-03-17T03:24:22;54.33;;;34.63;;
69392;SDS011;56582;44.624;20.378;2024-03-17T03:26:49;52.42;;;32.83;;
69392;SDS011;56582;44.624;20.378;2024-03-17T03:29:15;50.38;;;32.78;;
69392;SDS011;56582;44.624;20.378;2024-03-17T03:31:41;49.67;;;32.60;;
69392;SDS011;56582;44.624;20.378;2024-03-17T03:34:07;51.05;;;31.27;;
69392;SDS011;56582;44.624;20.378;2024-03-17T03:36:34;49.83;;;31.00;;
69392;SDS011;56582;44.624;20.378;2024-03-17T03:39:03;50.95;;;32.58;;
69392;SDS011;56582;44.624;20.378;2024-03-17T03:41:36;46.53;;;29.50;;
69392;SDS011;56582;44.624;20.378;2024-03-17T03:44:02;74.10;;;40.37;;
69392;SDS011;56582;44.624;20.378;2024-03-17T03:46:28;81.28;;;42.10;;
69392;SDS011;56582;44.624;20.378;2024-03-17T03:48:54;66.38;;;37.75;;
69392;SDS011;56582;44.624;20.378;2024-03-17T03:51:20;44.13;;;29.47;;
69392;SDS011;56582;44.624;20.378;2024-03-17T03:53:46;45.97;;;29.83;;
69392;SDS011;56582;44.624;20.378;2024-03-17T03:56:11;46.08;;;29.98;;
69392;SDS011;56582;44.624;20.378;2024-03-17T03:58:38;45.53;;;28.57;;
69392;SDS011;56582;44.624;20.378;2024-03-17T04:01:06;43.92;;;27.65;;
69392;SDS011;56582;44.624;20.378;2024-03-17T04:03:33;47.63;;;27.95;;
69392;SDS011;56582;44.624;20.378;2024-03-17T04:06:05;43.43;;;28.33;;
69392;SDS011;56582;44.624;20.378;2024-03-17T04:08:34;51.22;;;30.48;;
69392;SDS011;56582;44.624;20.378;2024-03-17T04:11:01;45.55;;;29.35;;
69392;SDS011;56582;44.624;20.378;2024-03-17T04:13:28;35.00;;;17.35;;
69392;SDS011;56582;44.624;20.378;2024-03-17T04:15:59;39.15;;;25.00;;
69392;SDS011;56582;44.624;20.378;2024-03-17T04:18:26;40.37;;;25.53;;
69392;SDS011;56582;44.624;20.378;2024-03-17T04:20:55;35.95;;;22.25;;
69392;SDS011;56582;44.624;20.378;2024-03-17T04:23:23;40.78;;;26.33;;
69392;SDS011;56582;44.624;20.378;2024-03-17T04:25:50;38.05;;;23.20;;
69392;SDS011;56582;44.624;20.378;2024-03-17T04:28:17;35.97;;;24.55;;
69392;SDS011;56582;44.624;20.378;2024-03-17T04:30:43;46.77;;;24.63;;
69392;SDS011;56582;44.624;20.378;2024-03-17T04:33:11;38.35;;;22.23;;
69392;SDS011;56582;44.624;20.378;2024-03-17T04:35:40;29.08;;;19.45;;
69392;SDS011;56582;44.624;20.378;2024-03-17T04:38:09;32.15;;;22.80;;
69392;SDS011;56582;44.624;20.378;2024-03-17T04:40:42;31.17;;;21.98;;
69392;SDS011;56582;44.624;20.378;2024-03-17T04:43:08;22.93;;;16.00;;
69392;SDS011;56582;44.624;20.378;2024-03-17T04:45:34;35.88;;;22.23;;
69392;SDS011;56582;44.624;20.378;2024-03-17T04:48:00;37.42;;;23.17;;
69392;SDS011;56582;44.624;20.378;2024-03-17T04:50:27;43.88;;;21.00;;
69392;SDS011;56582;44.624;20.378;2024-03-17T04:52:58;45.20;;;23.20;;
69392;SDS011;56582;44.624;20.378;2024-03-17T04:55:24;42.53;;;22.30;;
69392;SDS011;56582;44.624;20.378;2024-03-17T04:57:51;45.17;;;21.10;;
69392;SDS011;56582;44.624;20.378;2024-03-17T05:00:17;37.40;;;23.13;;
69392;SDS011;56582;44.624;20.378;2024-03-17T05:02:44;37.47;;;23.55;;
69392;SDS011;56582;44.624;20.378;2024-03-17T05:05:10;40.80;;;20.52;;
69392;SDS011;56582;44.624;20.378;2024-03-17T05:07:36;34.60;;;23.50;;
69392;SDS011;56582;44.624;20.378;2024-03-17T05:10:03;39.97;;;22.83;;
69392;SDS011;56582;44.624;20.378;2024-03-17T05:12:31;42.65;;;25.50;;
69392;SDS011;56582;44.624;20.378;2024-03-17T05:14:57;42.50;;;21.23;;
69392;SDS011;56582;44.624;20.378;2024-03-17T05:17:22;39.47;;;24.40;;
69392;SDS011;56582;44.624;20.378;2024-03-17T05:19:49;39.45;;;24.02;;
69392;SDS011;56582;44.624;20.378;2024-03-17T05:22:14;34.15;;;20.63;;
69392;SDS011;56582;44.624;20.378;2024-03-17T05:24:40;32.27;;;21.93;;
69392;SDS011;56582;44.624;20.378;2024-03-17T05:27:06;32.10;;;22.88;;
69392;SDS011;56582;44.624;20.378;2024-03-17T05:29:33;34.28;;;22.92;;
69392;SDS011;56582;44.624;20.378;2024-03-17T05:32:03;31.35;;;20.92;;
69392;SDS011;56582;44.624;20.378;2024-03-17T05:34:30;36.47;;;25.27;;
69392;SDS011;56582;44.624;20.378;2024-03-17T05:36:56;32.72;;;22.95;;
69392;SDS011;56582;44.624;20.378;2024-03-17T05:39:22;29.13;;;18.55;;
69392;SDS011;56582;44.624;20.378;2024-03-17T05:41:48;33.53;;;21.65;;
69392;SDS011;56582;44.624;20.378;2024-03-17T05:44:15;30.27;;;20.53;;
69392;SDS011;56582;44.624;20.378;2024-03-17T05:46:41;37.30;;;24.13;;
69392;SDS011;56582;44.624;20.378;2024-03-17T05:49:07;32.20;;;21.23;;
69392;SDS011;56582;44.624;20.378;2024-03-17T05:51:34;38.45;;;22.95;;
69392;SDS011;56582;44.624;20.378;2024-03-17T05:54:01;37.95;;;27.27;;
69392;SDS011;56582;44.624;20.378;2024-03-17T05:56:27;39.40;;;26.70;;
69392;SDS011;56582;44.624;20.378;2024-03-17T05:58:52;38.85;;;25.65;;
69392;SDS011;56582;44.624;20.378;2024-03-17T06:01:18;38.90;;;27.30;;
69392;SDS011;56582;44.624;20.378;2024-03-17T06:03:44;38.40;;;25.90;;
69392;SDS011;56582;44.624;20.378;2024-03-17T06:06:10;38.67;;;25.77;;
69392;SDS011;56582;44.624;20.378;2024-03-17T06:08:37;44.60;;;25.73;;
69392;SDS011;56582;44.624;20.378;2024-03-17T06:11:06;39.80;;;24.70;;
69392;SDS011;56582;44.624;20.378;2024-03-17T06:13:33;35.85;;;24.92;;
69392;SDS011;56582;44.624;20.378;2024-03-17T06:16:02;37.30;;;25.80;;
69392;SDS011;56582;44.624;20.378;2024-03-17T06:18:30;41.28;;;29.33;;
69392;SDS011;56582;44.624;20.378;2024-03-17T06:20:57;36.88;;;26.23;;
69392;SDS011;56582;44.624;20.378;2024-03-17T06:23:26;38.35;;;26.42;;
69392;SDS011;56582;44.624;20.378;2024-03-17T06:25:52;38.72;;;26.17;;
69392;SDS011;56582;44.624;20.378;2024-03-17T06:28:22;38.13;;;24.23;;
69392;SDS011;56582;44.624;20.378;2024-03-17T06:30:55;51.25;;;25.42;;
69392;SDS011;56582;44.624;20.378;2024-03-17T06:33:27;42.33;;;26.85;;
69392;SDS011;56582;44.624;20.378;2024-03-17T06:35:54;38.17;;;25.13;;
69392;SDS011;56582;44.624;20.378;2024-03-17T06:38:21;41.65;;;28.13;;
69392;SDS011;56582;44.624;20.378;2024-03-17T06:40:48;39.90;;;26.87;;
69392;SDS011;56582;44.624;20.378;2024-03-17T06:43:18;39.45;;;28.17;;
69392;SDS011;56582;44.624;20.378;2024-03-17T06:45:54;37.22;;;24.30;;
69392;SDS011;56582;44.624;20.378;2024-03-17T06:48:21;35.58;;;23.48;;
69392;SDS011;56582;44.624;20.378;2024-03-17T06:50:48;37.58;;;24.98;;
69392;SDS011;56582;44.624;20.378;2024-03-17T06:53:16;35.30;;;24.13;;
69392;SDS011;56582;44.624;20.378;2024-03-17T06:55:43;35.28;;;22.33;;
69392;SDS011;56582;44.624;20.378;2024-03-17T06:58:11;44.42;;;25.05;;
69392;SDS011;56582;44.624;20.378;2024-03-17T07:00:37;40.22;;;23.20;;
69392;SDS011;56582;44.624;20.378;2024-03-17T07:03:03;54.03;;;32.80;;
69392;SDS011;56582;44.624;20.378;2024-03-17T07:05:30;47.13;;;26.48;;
69392;SDS011;56582;44.624;20.378;2024-03-17T07:07:58;36.20;;;22.63;;
69392;SDS011;56582;44.624;20.378;2024-03-17T07:10:24;34.78;;;22.27;;
69392;SDS011;56582;44.624;20.378;2024-03-17T07:12:51;29.60;;;19.93;;
69392;SDS011;56582;44.624;20.378;2024-03-17T07:15:17;33.40;;;20.90;;
69392;SDS011;56582;44.624;20.378;2024-03-17T07:17:43;32.25;;;20.42;;
69392;SDS011;56582;44.624;20.378;2024-03-17T07:20:09;28.70;;;19.80;;
69392;SDS011;56582;44.624;20.378;2024-03-17T07:22:38;28.42;;;20.20;;
69392;SDS011;56582;44.624;20.378;2024-03-17T07:25:04;30.83;;;19.15;;
69392;SDS011;56582;44.624;20.378;2024-03-17T07:27:30;31.95;;;21.30;;
69392;SDS011;56582;44.624;20.378;2024-03-17T07:29:56;28.37;;;18.80;;
69392;SDS011;56582;44.624;20.378;2024-03-17T07:32:22;29.70;;;18.73;;
69392;SDS011;56582;44.624;20.378;2024-03-17T07:34:50;33.88;;;20.05;;
69392;SDS011;56582;44.624;20.378;2024-03-17T07:37:17;25.10;;;16.63;;
69392;SDS011;56582;44.624;20.378;2024-03-17T07:39:43;22.50;;;15.68;;
69392;SDS011;56582;44.624;20.378;2024-03-17T07:42:09;21.42;;;15.30;;
69392;SDS011;56582;44.624;20.378;2024-03-17T07:44:36;23.85;;;15.82;;
69392;SDS011;56582;44.624;20.378;2024-03-17T07:47:03;20.27;;;13.57;;
69392;SDS011;56582;44.624;20.378;2024-03-17T07:49:29;17.37;;;11.97;;
69392;SDS011;56582;44.624;20.378;2024-03-17T07:51:57;17.02;;;11.60;;
69392;SDS011;56582;44.624;20.378;2024-03-17T07:54:23;18.20;;;13.48;;
69392;SDS011;56582;44.624;20.378;2024-03-17T07:56:52;16.80;;;10.93;;
69392;SDS011;56582;44.624;20.378;2024-03-17T07:59:18;16.58;;;12.27;;
69392;SDS011;56582;44.624;20.378;2024-03-17T08:01:44;16.27;;;11.77;;
69392;SDS011;56582;44.624;20.378;2024-03-17T08:04:10;16.42;;;10.98;;
69392;SDS011;56582;44.624;20.378;2024-03-17T08:06:38;15.02;;;11.27;;
69392;SDS011;56582;44.624;20.378;2024-03-17T08:09:04;12.00;;;8.88;;
69392;SDS011;56582;44.624;20.378;2024-03-17T08:11:30;14.77;;;9.50;;
69392;SDS011;56582;44.624;20.378;2024-03-17T08:13:56;14.30;;;8.85;;
69392;SDS011;56582;44.624;20.378;2024-03-17T08:16:21;12.30;;;8.37;;
69392;SDS011;56582;44.624;20.378;2024-03-17T08:18:47;13.13;;;8.90;;
69392;SDS011;56582;44.624;20.378;2024-03-17T08:21:14;14.75;;;9.88;;
69392;SDS011;56582;44.624;20.378;2024-03-17T08:23:40;12.95;;;9.32;;
69392;SDS011;56582;44.624;20.378;2024-03-17T08:26:11;17.65;;;10.80;;
69392;SDS011;56582;44.624;20.378;2024-03-17T08:28:37;13.87;;;10.10;;
69392;SDS011;56582;44.624;20.378;2024-03-17T08:31:03;13.93;;;8.90;;
69392;SDS011;56582;44.624;20.378;2024-03-17T08:33:31;14.07;;;9.27;;
69392;SDS011;56582;44.624;20.378;2024-03-17T08:36:02;13.35;;;9.40;;
69392;SDS011;56582;44.624;20.378;2024-03-17T08:38:32;16.55;;;11.15;;
69392;SDS011;56582;44.624;20.378;2024-03-17T08:41:06;13.27;;;9.93;;
69392;SDS011;56582;44.624;20.378;2024-03-17T08:43:32;15.20;;;9.52;;
69392;SDS011;56582;44.624;20.378;2024-03-17T08:45:59;12.35;;;9.05;;
69392;SDS011;56582;44.624;20.378;2024-03-17T08:48:28;17.42;;;10.38;;
69392;SDS011;56582;44.624;20.378;2024-03-17T08:50:56;12.13;;;8.05;;
69392;SDS011;56582;44.624;20.378;2024-03-17T08:53:23;14.70;;;9.37;;
69392;SDS011;56582;44.624;20.378;2024-03-17T08:55:50;15.30;;;8.68;;
69392;SDS011;56582;44.624;20.378;2024-03-17T08:58:16;19.77;;;10.68;;
69392;SDS011;56582;44.624;20.378;2024-03-17T09:00:43;15.05;;;9.60;;
69392;SDS011;56582;44.624;20.378;2024-03-17T09:03:09;11.60;;;9.35;;
69392;SDS011;56582;44.624;20.378;2024-03-17T09:05:36;11.07;;;7.83;;
69392;SDS011;56582;44.624;20.378;2024-03-17T09:08:07;12.25;;;9.20;;
69392;SDS011;56582;44.624;20.378;2024-03-17T09:10:44;11.70;;;8.43;;
69392;SDS011;56582;44.624;20.378;2024-03-17T09:13:12;11.05;;;8.10;;
69392;SDS011;56582;44.624;20.378;2024-03-17T09:15:40;12.05;;;8.75;;
69392;SDS011;56582;44.624;20.378;2024-03-17T09:18:15;14.73;;;9.73;;
69392;SDS011;56582;44.624;20.378;2024-03-17T09:20:40;11.43;;;8.48;;
69392;SDS011;56582;44.624;20.378;2024-03-17T09:23:07;12.52;;;7.88;;
69392;SDS011;56582;44.624;20.378;2024-03-17T09:25:33;11.52;;;8.70;;
69392;SDS011;56582;44.624;20.378;2024-03-17T09:27:59;9.03;;;5.87;;
69392;SDS011;56582;44.624;20.378;2024-03-17T09:30:26;7.82;;;5.13;;
69392;SDS011;56582;44.624;20.378;2024-03-17T09:32:52;7.85;;;5.43;;
69392;SDS011;56582;44.624;20.378;2024-03-17T09:35:18;7.63;;;5.37;;
69392;SDS011;56582;44.624;20.378;2024-03-17T09:37:43;8.27;;;6.57;;
69392;SDS011;56582;44.624;20.378;2024-03-17T09:40:15;10.17;;;6.90;;
69392;SDS011;56582;44.624;20.378;2024-03-17T09:42:41;10.00;;;6.60;;
69392;SDS011;56582;44.624;20.378;2024-03-17T09:45:10;15.45;;;8.48;;
69392;SDS011;56582;44.624;20.378;2024-03-17T09:47:36;28.10;;;14.20;;
69392;SDS011;56582;44.624;20.378;2024-03-17T09:50:02;53.88;;;21.98;;
69392;SDS011;56582;44.624;20.378;2024-03-17T09:52:28;9.90;;;5.88;;
69392;SDS011;56582;44.624;20.378;2024-03-17T09:54:59;7.47;;;5.68;;
69392;SDS011;56582;44.624;20.378;2024-03-17T09:57:26;14.90;;;6.33;;
69392;SDS011;56582;44.624;20.378;2024-03-17T09:59:54;13.43;;;8.07;;
69392;SDS011;56582;44.624;20.378;2024-03-17T10:02:20;6.85;;;4.90;;
69392;SDS011;56582;44.624;20.378;2024-03-17T10:04:47;15.23;;;7.97;;
69392;SDS011;56582;44.624;20.378;2024-03-17T10:07:12;14.50;;;9.03;;
69392;SDS011;56582;44.624;20.378;2024-03-17T10:09:39;9.13;;;5.85;;
69392;SDS011;56582;44.624;20.378;2024-03-17T10:12:27;9.65;;;6.28;;
69392;SDS011;56582;44.624;20.378;2024-03-17T10:14:58;10.57;;;6.28;;
69392;SDS011;56582;44.624;20.378;2024-03-17T10:17:31;14.70;;;8.45;;
69392;SDS011;56582;44.624;20.378;2024-03-17T10:20:14;10.23;;;6.47;;
69392;SDS011;56582;44.624;20.378;2024-03-17T10:25:26;7.32;;;5.35;;
69392;SDS011;56582;44.624;20.378;2024-03-17T10:27:53;8.23;;;6.38;;
69392;SDS011;56582;44.624;20.378;2024-03-17T10:30:20;7.22;;;5.03;;
69392;SDS011;56582;44.624;20.378;2024-03-17T10:32:53;7.47;;;5.43;;
69392;SDS011;56582;44.624;20.378;2024-03-17T10:38:02;5.35;;;4.18;;
69392;SDS011;56582;44.624;20.378;2024-03-17T10:40:30;5.07;;;4.20;;
69392;SDS011;56582;44.624;20.378;2024-03-17T10:42:59;6.22;;;3.72;;
69392;SDS011;56582;44.624;20.378;2024-03-17T10:45:26;5.73;;;4.03;;
69392;SDS011;56582;44.624;20.378;2024-03-17T10:48:00;6.22;;;4.20;;
69392;SDS011;56582;44.624;20.378;2024-03-17T10:50:31;5.55;;;3.50;;
69392;SDS011;56582;44.624;20.378;2024-03-17T10:53:03;5.10;;;3.63;;
69392;SDS011;56582;44.624;20.378;2024-03-17T10:55:45;5.18;;;3.40;;
69392;SDS011;56582;44.624;20.378;2024-03-17T10:58:29;5.33;;;4.33;;
69392;SDS011;56582;44.624;20.378;2024-03-17T11:01:02;5.07;;;3.97;;
69392;SDS011;56582;44.624;20.378;2024-03-17T11:03:30;5.35;;;4.05;;
69392;SDS011;56582;44.624;20.378;2024-03-17T11:05:56;8.13;;;5.65;;
69392;SDS011;56582;44.624;20.378;2024-03-17T11:08:23;5.35;;;3.60;;
69392;SDS011;56582;44.624;20.378;2024-03-17T11:10:51;6.93;;;4.93;;
69392;SDS011;56582;44.624;20.378;2024-03-17T11:13:27;7.70;;;4.63;;
69392;SDS011;56582;44.624;20.378;2024-03-17T11:15:55;5.30;;;3.92;;
69392;SDS011;56582;44.624;20.378;2024-03-17T11:23:32;6.00;;;4.18;;
69392;SDS011;56582;44.624;20.378;2024-03-17T11:25:58;5.95;;;4.50;;
69392;SDS011;56582;44.624;20.378;2024-03-17T11:34:00;5.90;;;4.32;;
69392;SDS011;56582;44.624;20.378;2024-03-17T11:44:44;6.40;;;4.28;;
69392;SDS011;56582;44.624;20.378;2024-03-17T11:49:29;9.30;;;4.60;;
69392;SDS011;56582;44.624;20.378;2024-03-17T11:52:08;6.50;;;4.80;;
69392;SDS011;56582;44.624;20.378;2024-03-17T11:54:37;8.13;;;4.97;;
69392;SDS011;56582;44.624;20.378;2024-03-17T11:57:08;8.32;;;5.07;;
69392;SDS011;56582;44.624;20.378;2024-03-17T11:59:37;12.98;;;8.63;;
69392;SDS011;56582;44.624;20.378;2024-03-17T12:02:37;7.35;;;5.38;;
69392;SDS011;56582;44.624;20.378;2024-03-17T12:04:57;50.17;;;26.87;;
69392;SDS011;56582;44.624;20.378;2024-03-17T12:07:24;8.38;;;5.22;;
69392;SDS011;56582;44.624;20.378;2024-03-17T12:09:51;6.40;;;4.60;;
69392;SDS011;56582;44.624;20.378;2024-03-17T12:12:22;7.65;;;5.03;;
69392;SDS011;56582;44.624;20.378;2024-03-17T12:15:01;6.47;;;4.85;;
69392;SDS011;56582;44.624;20.378;2024-03-17T12:17:28;6.60;;;5.40;;
69392;SDS011;56582;44.624;20.378;2024-03-17T12:19:54;6.28;;;4.28;;
69392;SDS011;56582;44.624;20.378;2024-03-17T12:22:23;7.75;;;5.15;;
69392;SDS011;56582;44.624;20.378;2024-03-17T12:24:54;11.82;;;7.85;;
69392;SDS011;56582;44.624;20.378;2024-03-17T12:27:21;8.90;;;5.77;;
69392;SDS011;56582;44.624;20.378;2024-03-17T12:29:51;11.23;;;7.10;;
69392;SDS011;56582;44.624;20.378;2024-03-17T12:34:51;8.38;;;5.68;;
69392;SDS011;56582;44.624;20.378;2024-03-17T12:37:19;10.43;;;6.78;;
69392;SDS011;56582;44.624;20.378;2024-03-17T12:39:50;8.17;;;6.20;;
69392;SDS011;56582;44.624;20.378;2024-03-17T12:42:26;7.25;;;5.43;;
69392;SDS011;56582;44.624;20.378;2024-03-17T12:44:53;12.82;;;6.32;;
69392;SDS011;56582;44.624;20.378;2024-03-17T12:47:23;6.53;;;4.97;;
69392;SDS011;56582;44.624;20.378;2024-03-17T12:49:54;6.75;;;4.57;;
69392;SDS011;56582;44.624;20.378;2024-03-17T12:52:23;7.43;;;5.73;;
69392;SDS011;56582;44.624;20.378;2024-03-17T12:55:08;13.80;;;7.75;;
69392;SDS011;56582;44.624;20.378;2024-03-17T13:00:46;8.15;;;5.75;;
69392;SDS011;56582;44.624;20.378;2024-03-17T13:03:25;6.65;;;4.95;;
69392;SDS011;56582;44.624;20.378;2024-03-17T13:05:51;12.37;;;9.27;;
69392;SDS011;56582;44.624;20.378;2024-03-17T13:08:17;9.40;;;5.50;;
69392;SDS011;56582;44.624;20.378;2024-03-17T13:10:43;8.55;;;5.80;;
69392;SDS011;56582;44.624;20.378;2024-03-17T13:13:09;13.00;;;6.03;;
69392;SDS011;56582;44.624;20.378;2024-03-17T13:15:37;9.80;;;6.03;;
69392;SDS011;56582;44.624;20.378;2024-03-17T13:18:03;19.70;;;9.48;;
69392;SDS011;56582;44.624;20.378;2024-03-17T13:20:31;25.80;;;9.13;;
69392;SDS011;56582;44.624;20.378;2024-03-17T13:22:57;9.10;;;5.43;;
69392;SDS011;56582;44.624;20.378;2024-03-17T13:25:25;22.42;;;8.85;;
69392;SDS011;56582;44.624;20.378;2024-03-17T13:27:54;8.00;;;4.93;;
69392;SDS011;56582;44.624;20.378;2024-03-17T13:30:21;8.57;;;5.05;;
69392;SDS011;56582;44.624;20.378;2024-03-17T13:32:49;8.18;;;5.57;;
69392;SDS011;56582;44.624;20.378;2024-03-17T13:35:20;10.53;;;6.90;;
69392;SDS011;56582;44.624;20.378;2024-03-17T13:37:48;7.80;;;5.18;;
69392;SDS011;56582;44.624;20.378;2024-03-17T13:40:15;7.85;;;5.65;;
69392;SDS011;56582;44.624;20.378;2024-03-17T13:42:45;8.77;;;6.78;;
69392;SDS011;56582;44.624;20.378;2024-03-17T13:45:12;7.78;;;5.80;;
69392;SDS011;56582;44.624;20.378;2024-03-17T13:47:45;9.00;;;5.83;;
69392;SDS011;56582;44.624;20.378;2024-03-17T13:50:13;8.88;;;6.45;;
69392;SDS011;56582;44.624;20.378;2024-03-17T13:52:39;9.43;;;6.85;;
69392;SDS011;56582;44.624;20.378;2024-03-17T13:55:06;13.45;;;7.28;;
69392;SDS011;56582;44.624;20.378;2024-03-17T13:57:36;12.38;;;8.75;;
69392;SDS011;56582;44.624;20.378;2024-03-17T14:00:02;12.87;;;9.33;;
69392;SDS011;56582;44.624;20.378;2024-03-17T14:02:29;11.43;;;7.95;;
69392;SDS011;56582;44.624;20.378;2024-03-17T14:04:54;7.77;;;5.43;;
69392;SDS011;56582;44.624;20.378;2024-03-17T14:07:20;8.43;;;5.63;;
69392;SDS011;56582;44.624;20.378;2024-03-17T14:09:46;5.30;;;4.03;;
69392;SDS011;56582;44.624;20.378;2024-03-17T14:12:11;5.90;;;4.30;;
69392;SDS011;56582;44.624;20.378;2024-03-17T14:14:37;6.60;;;4.30;;
69392;SDS011;56582;44.624;20.378;2024-03-17T14:17:03;7.40;;;4.95;;
69392;SDS011;56582;44.624;20.378;2024-03-17T14:19:29;27.50;;;12.15;;
69392;SDS011;56582;44.624;20.378;2024-03-17T14:21:55;6.77;;;4.27;;
69392;SDS011;56582;44.624;20.378;2024-03-17T14:24:21;9.82;;;5.65;;
69392;SDS011;56582;44.624;20.378;2024-03-17T14:26:47;9.70;;;5.68;;
69392;SDS011;56582;44.624;20.378;2024-03-17T14:29:13;7.40;;;4.73;;
69392;SDS011;56582;44.624;20.378;2024-03-17T14:31:39;7.15;;;5.68;;
69392;SDS011;56582;44.624;20.378;2024-03-17T14:34:09;7.55;;;5.80;;
69392;SDS011;56582;44.624;20.378;2024-03-17T14:36:35;6.78;;;5.07;;
69392;SDS011;56582;44.624;20.378;2024-03-17T14:39:04;6.93;;;4.20;;
69392;SDS011;56582;44.624;20.378;2024-03-17T14:41:30;8.18;;;4.70;;
69392;SDS011;56582;44.624;20.378;2024-03-17T14:43:56;6.28;;;4.30;;
69392;SDS011;56582;44.624;20.378;2024-03-17T14:46:22;6.30;;;4.70;;
69392;SDS011;56582;44.624;20.378;2024-03-17T14:48:49;6.05;;;4.55;;
69392;SDS011;56582;44.624;20.378;2024-03-17T14:51:16;7.80;;;4.40;;